Time;durP1;ratioP1;P1;durP2;ratioP2;P2;SDS_P1;SDS_P2;PMS_P1;PMS_P2;Temp;Humidity;BMP_temperature;BMP_pressure;BME280_temperature;BME280_humidity;BME280_pressure;Samples;Min_cycle;Max_cycle;Signal;HPM_P1;HPM_P2
2023/03/30 00:00:23;;;;;;;30.88;10.15;;;;;;;11.36;78.84;99643.78;4979496;28;20064;-86
2023/03/30 00:02:52;;;;;;;26.30;9.38;;;;;;;11.37;79.05;99655.22;5006714;28;20097;-86
2023/03/30 00:05:22;;;;;;;32.13;10.00;;;;;;;11.35;79.68;99657.19;4992319;28;20129;-86
2023/03/30 00:07:52;;;;;;;26.17;9.60;;;;;;;11.38;80.03;99648.94;4998350;28;20657;-87
2023/03/30 00:10:19;;;;;;;36.47;11.65;;;;;;;11.33;80.41;99620.13;4958323;28;20156;-86
2023/03/30 00:12:49;;;;;;;33.17;10.80;;;;;;;11.37;81.21;99600.28;4973671;28;20595;-86
2023/03/30 00:15:18;;;;;;;28.10;9.95;;;;;;;11.45;81.10;99554.34;4979713;28;20046;-86
2023/03/30 00:17:45;;;;;;;31.92;10.43;;;;;;;11.49;80.98;99505.16;5003604;28;20056;-86
2023/03/30 00:20:13;;;;;;;26.00;9.00;;;;;;;11.52;81.72;99489.78;5002694;28;20046;-87
2023/03/30 00:22:41;;;;;;;32.85;8.10;;;;;;;11.55;81.96;99472.69;4981714;28;20042;-87
2023/03/30 00:25:10;;;;;;;19.92;7.43;;;;;;;11.56;82.19;99487.63;4960945;28;20536;-86
2023/03/30 00:27:40;;;;;;;20.15;7.25;;;;;;;11.61;81.90;99485.38;4967013;28;20548;-86
2023/03/30 00:30:10;;;;;;;25.92;6.15;;;;;;;11.63;83.38;99512.66;4985374;28;20463;-86
2023/03/30 00:32:37;;;;;;;20.42;8.45;;;;;;;11.46;85.96;99519.59;4973534;28;20069;-87
2023/03/30 00:35:04;;;;;;;29.15;10.27;;;;;;;11.34;85.44;99520.78;4970204;28;20413;-87
2023/03/30 00:37:32;;;;;;;28.27;9.60;;;;;;;11.25;85.16;99519.03;4956627;28;20216;-87
2023/03/30 00:39:59;;;;;;;19.75;8.70;;;;;;;11.26;84.53;99505.59;4995412;28;20133;-86
2023/03/30 00:42:26;;;;;;;25.25;7.68;;;;;;;11.29;84.32;99499.13;4982943;28;20057;-87
2023/03/30 00:45:08;;;;;;;20.60;8.68;;;;;;;11.29;86.82;99509.75;4981810;28;20046;-86
2023/03/30 00:47:40;;;;;;;21.45;8.25;;;;;;;11.34;85.52;99502.19;4991776;28;20155;-87
2023/03/30 00:50:08;;;;;;;23.17;8.05;;;;;;;11.35;85.52;99498.56;4976694;28;20332;-87
2023/03/30 00:52:36;;;;;;;21.30;7.60;;;;;;;11.37;85.93;99512.53;4990880;28;20058;-86
2023/03/30 00:55:06;;;;;;;22.45;8.13;;;;;;;11.29;87.79;99507.09;5008463;28;20048;-86
2023/03/30 00:57:35;;;;;;;19.70;7.00;;;;;;;11.31;87.38;99505.13;4998424;28;20046;-86
2023/03/30 01:00:06;;;;;;;25.88;7.25;;;;;;;11.28;88.14;99500.13;4996480;28;20049;-87
2023/03/30 01:02:38;;;;;;;29.13;8.35;;;;;;;11.24;88.74;99499.56;4971220;28;20128;-86
2023/03/30 01:05:05;;;;;;;25.30;7.80;;;;;;;11.28;88.15;99494.81;5004176;28;20141;-87
2023/03/30 01:07:42;;;;;;;21.27;7.82;;;;;;;11.29;88.58;99501.78;4973585;28;20054;-86
2023/03/30 01:10:09;;;;;;;17.55;6.65;;;;;;;11.35;88.39;99506.53;4990181;28;20281;-86
2023/03/30 01:12:40;;;;;;;21.60;7.50;;;;;;;11.33;88.45;99505.00;4995748;28;20264;-87
2023/03/30 01:15:07;;;;;;;22.02;7.55;;;;;;;11.32;88.69;99514.78;4981373;28;20406;-87
2023/03/30 01:17:51;;;;;;;24.27;7.80;;;;;;;11.25;90.49;99514.56;4945295;28;20064;-87
2023/03/30 01:20:34;;;;;;;20.20;7.30;;;;;;;11.21;90.31;99515.00;4989768;28;20045;-86
2023/03/30 01:23:26;;;;;;;17.17;8.07;;;;;;;11.16;90.73;99510.13;4995038;28;20046;-87
2023/03/30 01:26:17;;;;;;;19.38;8.52;;;;;;;11.13;90.73;99499.78;4986601;28;20625;-86
2023/03/30 01:28:45;;;;;;;15.75;6.97;;;;;;;11.22;89.13;99495.38;4974639;28;20129;-86
2023/03/30 01:31:47;;;;;;;20.80;7.70;;;;;;;11.15;90.40;99500.47;5005438;28;20423;-87
2023/03/30 01:34:33;;;;;;;19.38;8.75;;;;;;;11.18;89.11;99497.53;4988905;28;21240;-87
2023/03/30 01:36:59;;;;;;;;;;;;;;;11.04;90.23;99500.66;4992349;28;20069;-87
2023/03/30 01:39:50;;;;;;;15.73;6.13;;;;;;;11.16;89.12;99509.28;4978353;28;19929;-86
2023/03/30 01:42:21;;;;;;;15.13;7.13;;;;;;;11.13;89.21;99504.25;5000591;28;20050;-86
2023/03/30 01:44:57;;;;;;;17.08;6.97;;;;;;;11.16;88.47;99503.97;5008402;28;20053;-87
2023/03/30 01:47:50;;;;;;;15.77;6.75;;;;;;;11.00;89.19;99496.63;5015006;28;20061;-86
2023/03/30 01:50:25;;;;;;;17.35;8.27;;;;;;;11.01;87.71;99504.44;5001458;28;20050;-86
2023/03/30 01:53:00;;;;;;;17.73;7.25;;;;;;;10.99;87.64;99506.44;4968064;28;20058;-87
2023/03/30 01:55:28;;;;;;;18.42;7.07;;;;;;;11.05;87.51;99519.13;4934531;28;20417;-86
2023/03/30 01:58:35;;;;;;;19.50;8.00;;;;;;;11.04;87.73;99504.19;4996560;28;20053;-87
2023/03/30 02:01:05;;;;;;;17.50;8.20;;;;;;;11.10;87.25;99515.19;4937781;28;20051;-86
2023/03/30 02:03:37;;;;;;;16.02;7.07;;;;;;;11.09;88.10;99514.34;4999217;28;20050;-86
2023/03/30 02:06:10;;;;;;;22.08;7.32;;;;;;;11.05;89.20;99502.34;4991360;28;20132;-87
2023/03/30 02:08:38;;;;;;;15.40;6.97;;;;;;;11.12;88.78;99507.88;5003100;28;20046;-86
2023/03/30 02:11:06;;;;;;;16.15;7.80;;;;;;;11.08;89.23;99508.19;5000840;28;20103;-87
2023/03/30 02:13:36;;;;;;;16.95;7.10;;;;;;;11.10;89.25;99504.56;4971449;28;20061;-87
2023/03/30 02:16:29;;;;;;;15.45;5.90;;;;;;;11.00;90.10;99523.19;4990270;28;20046;-86
2023/03/30 02:18:56;;;;;;;15.55;6.95;;;;;;;11.11;89.33;99516.84;4992427;28;20145;-86
2023/03/30 02:21:24;;;;;;;12.55;6.60;;;;;;;11.09;89.39;99506.38;4994762;28;20108;-86
2023/03/30 02:23:57;;;;;;;16.75;6.55;;;;;;;11.12;89.64;99508.75;5010341;28;20342;-86
2023/03/30 02:26:26;;;;;;;18.15;6.50;;;;;;;11.11;89.67;99507.06;4960813;28;20050;-86
2023/03/30 02:28:53;;;;;;;16.63;6.15;;;;;;;11.12;89.65;99510.53;4956928;28;20120;-87
2023/03/30 02:31:20;;;;;;;12.32;5.65;;;;;;;11.12;89.61;99522.03;4978870;28;20052;-87
2023/03/30 02:34:04;;;;;;;15.93;6.55;;;;;;;10.98;91.42;99530.47;5011929;28;20113;-86
2023/03/30 02:36:51;;;;;;;14.52;6.15;;;;;;;11.03;90.94;99526.38;5006236;28;20046;-86
2023/03/30 02:39:50;;;;;;;10.80;5.70;;;;;;;10.98;92.18;99526.00;4980657;28;20045;-86
2023/03/30 02:42:33;;;;;;;16.33;7.05;;;;;;;11.08;90.92;99518.81;4979175;28;20137;-86
2023/03/30 02:45:16;;;;;;;12.63;6.35;;;;;;;11.06;91.03;99534.06;4993538;28;20084;-87
2023/03/30 02:48:13;;;;;;;15.07;6.30;;;;;;;11.07;90.67;99506.53;4979574;28;20054;-86
2023/03/30 02:50:59;;;;;;;15.80;6.43;;;;;;;11.14;89.94;99490.81;4986878;28;20330;-86
2023/03/30 02:54:21;;;;;;;26.90;6.93;;;;;;;11.01;91.64;99517.72;4997070;28;20053;-87
2023/03/30 02:57:31;;;;;;;21.10;7.28;;;;;;;10.88;92.39;99511.09;5003585;28;20068;-86
2023/03/30 03:00:34;;;;;;;17.30;7.25;;;;;;;10.88;92.35;99513.75;5007531;28;20041;-87
2023/03/30 03:03:07;;;;;;;20.80;7.38;;;;;;;10.94;92.25;99507.84;4976950;28;20052;-86
2023/03/30 03:05:35;;;;;;;12.40;6.65;;;;;;;10.91;91.94;99500.16;4980113;28;20115;-86
2023/03/30 03:08:13;;;;;;;15.90;6.35;;;;;;;10.95;92.35;99504.22;4996607;28;20054;-87
2023/03/30 03:10:44;;;;;;;14.40;6.72;;;;;;;11.01;91.65;99503.59;4990345;28;20042;-87
2023/03/30 03:13:15;;;;;;;14.18;7.03;;;;;;;10.99;92.45;99486.97;4991078;28;20054;-86
2023/03/30 03:15:45;;;;;;;21.23;8.75;;;;;;;11.00;92.14;99483.34;4978110;28;20073;-87
2023/03/30 03:18:12;;;;;;;21.65;10.93;;;;;;;10.99;92.41;99479.88;4989059;28;20502;-86
2023/03/30 03:20:40;;;;;;;23.85;9.38;;;;;;;11.01;92.61;99479.69;4968856;28;20639;-86
2023/03/30 03:23:09;;;;;;;23.33;8.43;;;;;;;11.03;92.46;99480.41;4975058;28;20552;-87
2023/03/30 03:25:43;;;;;;;16.00;7.10;;;;;;;11.02;92.55;99484.03;5005363;28;20045;-86
2023/03/30 03:28:12;;;;;;;18.42;6.80;;;;;;;11.07;92.11;99476.47;4970624;28;20056;-87
2023/03/30 03:30:54;;;;;;;14.57;6.15;;;;;;;11.03;92.26;99469.75;4970629;28;20122;-87
2023/03/30 03:33:23;;;;;;;21.00;8.70;;;;;;;11.05;92.53;99468.63;4968253;28;20058;-87
2023/03/30 03:35:59;;;;;;;18.27;8.05;;;;;;;11.02;92.68;99471.59;5006176;28;20065;-87
2023/03/30 03:38:32;;;;;;;23.05;7.07;;;;;;;11.04;92.66;99480.25;4970409;28;20058;-86
2023/03/30 03:41:06;;;;;;;15.23;6.10;;;;;;;11.06;92.89;99478.25;4962584;28;20045;-87
2023/03/30 03:43:33;;;;;;;13.45;5.57;;;;;;;11.10;92.95;99483.31;5004093;28;20046;-87
2023/03/30 03:46:00;;;;;;;10.50;5.63;;;;;;;11.10;92.95;99493.94;4989983;28;20046;-87
2023/03/30 03:48:27;;;;;;;18.00;6.18;;;;;;;11.12;93.05;99487.50;5004099;28;20050;-87
2023/03/30 03:50:57;;;;;;;10.77;5.10;;;;;;;11.13;93.25;99496.28;4993254;28;20596;-87
2023/03/30 03:53:29;;;;;;;8.93;5.65;;;;;;;11.15;92.88;99497.81;4990827;28;20578;-87
2023/03/30 03:56:13;;;;;;;20.98;5.95;;;;;;;11.18;92.68;99499.34;4981767;28;20053;-86
2023/03/30 03:58:45;;;;;;;16.15;5.75;;;;;;;11.24;92.53;99477.47;4974344;28;20562;-86
2023/03/30 04:01:16;;;;;;;14.30;5.53;;;;;;;11.20;92.95;99478.78;4985419;28;20054;-86
2023/03/30 04:03:43;;;;;;;8.65;4.78;;;;;;;11.17;93.48;99465.75;4989855;28;20057;-87
2023/03/30 04:06:17;;;;;;;9.07;4.43;;;;;;;11.16;93.23;99450.81;4999028;28;20073;-87
2023/03/30 04:08:44;;;;;;;15.10;4.68;;;;;;;11.22;93.34;99452.88;4963184;28;20069;-87
2023/03/30 04:11:31;;;;;;;14.93;5.32;;;;;;;11.16;93.88;99450.81;4997416;28;20128;-87
2023/03/30 04:14:17;;;;;;;15.93;5.60;;;;;;;11.12;93.75;99437.00;4995271;28;20046;-86
2023/03/30 04:17:05;;;;;;;12.55;5.35;;;;;;;11.17;93.77;99439.19;4980001;28;20050;-87
2023/03/30 04:19:40;;;;;;;16.67;6.60;;;;;;;11.14;93.90;99419.06;4966278;28;20048;-86
2023/03/30 04:22:18;;;;;;;17.35;6.53;;;;;;;11.13;93.66;99404.13;4981244;28;20911;-86
2023/03/30 04:25:08;;;;;;;16.20;6.43;;;;;;;11.16;94.00;99406.47;4978911;28;20414;-86
2023/03/30 04:27:56;;;;;;;12.75;5.18;;;;;;;11.15;94.16;99394.19;4953275;28;20557;-86
2023/03/30 04:30:39;;;;;;;14.05;6.32;;;;;;;11.17;94.38;99384.25;4985640;28;20050;-87
2023/03/30 04:33:33;;;;;;;12.65;6.15;;;;;;;11.12;94.77;99380.34;4986051;28;20053;-87
2023/03/30 04:36:19;;;;;;;13.90;5.38;;;;;;;11.10;95.00;99361.91;4952940;28;20529;-87
2023/03/30 04:39:02;;;;;;;15.57;6.38;;;;;;;11.12;94.54;99359.09;4954848;28;20399;-86
2023/03/30 04:42:01;;;;;;;13.45;5.97;;;;;;;11.08;94.57;99353.25;4987241;28;20073;-86
2023/03/30 04:44:39;;;;;;;14.13;6.35;;;;;;;11.07;94.73;99356.91;5015588;28;20865;-86
2023/03/30 04:47:29;;;;;;;22.58;7.85;;;;;;;11.04;94.91;99366.00;4999391;28;20050;-87
2023/03/30 04:50:19;;;;;;;17.10;6.15;;;;;;;11.03;94.50;99355.53;4999126;28;20451;-86
2023/03/30 04:53:07;;;;;;;15.43;6.63;;;;;;;11.08;94.28;99350.59;4978754;28;20060;-86
2023/03/30 04:55:50;;;;;;;13.13;6.17;;;;;;;11.07;94.34;99348.94;4992170;28;20046;-87
2023/03/30 04:58:26;;;;;;;12.40;5.80;;;;;;;11.06;94.36;99352.56;4998985;28;20057;-86
2023/03/30 05:01:07;;;;;;;21.20;6.43;;;;;;;11.04;94.52;99360.69;4993137;28;20726;-87
2023/03/30 05:04:05;;;;;;;16.40;5.80;;;;;;;11.03;94.83;99379.44;4987432;28;20587;-87
2023/03/30 05:06:44;;;;;;;17.20;8.05;;;;;;;11.07;94.65;99389.63;4988770;28;20045;-86
2023/03/30 05:09:30;;;;;;;9.98;5.15;;;;;;;11.03;94.29;99377.59;5017948;28;20054;-86
2023/03/30 05:12:23;;;;;;;22.08;5.93;;;;;;;11.04;94.37;99368.66;4992164;28;20077;-86
2023/03/30 05:15:07;;;;;;;10.55;5.03;;;;;;;11.07;94.47;99373.69;4989103;28;20426;-87
2023/03/30 05:17:48;;;;;;;19.67;7.70;;;;;;;11.06;94.79;99382.63;4987153;28;20042;-87
2023/03/30 05:20:38;;;;;;;15.27;5.60;;;;;;;11.07;94.76;99381.66;4996399;28;20520;-87
2023/03/30 05:23:07;;;;;;;14.48;5.35;;;;;;;11.06;94.97;99355.22;5005926;28;20046;-86
2023/03/30 05:26:12;;;;;;;14.85;5.90;;;;;;;11.03;94.89;99344.91;4976847;28;20403;-87
2023/03/30 05:28:53;;;;;;;12.40;5.07;;;;;;;11.06;95.12;99339.28;4990156;28;20045;-87
2023/03/30 05:31:38;;;;;;;12.20;5.18;;;;;;;11.04;94.98;99342.09;4990530;28;20053;-87
2023/03/30 05:34:26;;;;;;;12.88;5.15;;;;;;;11.05;94.82;99346.41;5005951;28;20117;-86
2023/03/30 05:37:00;;;;;;;10.23;5.88;;;;;;;11.04;94.99;99336.78;4991253;28;20703;-87
2023/03/30 05:39:44;;;;;;;11.48;5.22;;;;;;;11.01;95.20;99329.09;5014674;28;20056;-86
2023/03/30 05:42:31;;;;;;;9.30;5.10;;;;;;;11.03;95.30;99337.75;4979879;28;20058;-86
2023/03/30 05:45:10;;;;;;;10.60;5.00;;;;;;;11.04;95.18;99342.09;4976930;28;20045;-86
2023/03/30 05:47:56;;;;;;;11.45;5.72;;;;;;;11.05;95.09;99357.03;4981572;28;20710;-87
2023/03/30 05:50:46;;;;;;;13.38;5.60;;;;;;;11.05;95.17;99367.66;4989526;28;20085;-87
2023/03/30 05:53:33;;;;;;;14.77;5.40;;;;;;;11.07;95.20;99383.47;5012265;28;20402;-86
2023/03/30 05:56:33;;;;;;;17.63;6.68;;;;;;;11.05;95.14;99372.97;5012104;28;20060;-87
2023/03/30 05:59:20;;;;;;;13.85;5.20;;;;;;;11.01;95.82;99387.53;4990671;28;20050;-87
2023/03/30 06:02:11;;;;;;;17.30;6.47;;;;;;;11.02;95.62;99423.78;4980969;28;20053;-86
2023/03/30 06:04:39;;;;;;;22.98;7.40;;;;;;;11.08;95.22;99459.53;4960589;28;20054;-86
2023/03/30 06:07:06;;;;;;;26.48;6.88;;;;;;;11.05;95.99;99467.81;4997461;28;20049;-86
2023/03/30 06:09:34;;;;;;;14.75;6.35;;;;;;;11.06;95.82;99478.25;4977463;28;20704;-86
2023/03/30 06:12:07;;;;;;;;;;;;;;;10.90;98.03;99501.97;5002212;28;20683;-86
2023/03/30 06:14:35;;;;;;;12.45;7.25;;;;;;;11.05;96.10;99513.81;5000289;28;20009;-87
2023/03/30 06:17:28;;;;;;;16.92;6.57;;;;;;;11.09;95.46;99514.34;4971341;28;20113;-86
2023/03/30 06:19:56;;;;;;;22.27;6.20;;;;;;;11.12;95.64;99507.88;5011501;28;20038;-86
2023/03/30 06:22:22;;;;;;;21.50;8.45;;;;;;;11.11;96.13;99504.41;4978707;28;20050;-86
2023/03/30 06:25:12;;;;;;;22.83;6.90;;;;;;;11.13;95.84;99509.59;4977279;28;20057;-86
2023/03/30 06:27:40;;;;;;;20.58;6.63;;;;;;;11.10;96.44;99515.19;4979956;28;20041;-85
2023/03/30 06:30:11;;;;;;;20.88;7.60;;;;;;;11.13;96.38;99523.69;4963904;28;20069;-86
2023/03/30 06:32:40;;;;;;;18.40;7.75;;;;;;;11.12;96.43;99526.50;4995881;28;20041;-87
2023/03/30 06:35:14;;;;;;;;;;;;;;;10.95;98.84;99522.81;5000940;28;20056;-87
2023/03/30 06:37:42;;;;;;;19.13;6.68;;;;;;;11.08;96.83;99531.28;4993713;28;19931;-86
2023/03/30 06:40:12;;;;;;;18.48;6.80;;;;;;;11.11;96.76;99525.66;5006503;28;20137;-87
2023/03/30 06:42:42;;;;;;;25.85;7.63;;;;;;;11.12;96.53;99519.38;5004132;28;20348;-86
2023/03/30 06:45:19;;;;;;;19.20;7.90;;;;;;;11.14;96.49;99519.22;5006702;28;20189;-87
2023/03/30 06:47:46;;;;;;;19.63;6.85;;;;;;;11.16;96.51;99514.59;4962429;28;20050;-86
2023/03/30 06:50:14;;;;;;;17.70;7.68;;;;;;;11.13;96.81;99513.06;4990519;28;20038;-86
2023/03/30 06:53:10;;;;;;;12.75;7.40;;;;;;;11.13;97.48;99523.69;4986798;28;20347;-86
2023/03/30 06:55:41;;;;;;;16.90;7.00;;;;;;;11.14;97.24;99514.72;4989563;28;20049;-86
2023/03/30 06:58:12;;;;;;;16.23;7.30;;;;;;;11.17;97.43;99526.88;4985159;28;20429;-86
2023/03/30 07:00:39;;;;;;;18.70;7.90;;;;;;;11.14;97.76;99525.34;5003481;28;20056;-87
2023/03/30 07:03:25;;;;;;;17.58;7.85;;;;;;;11.20;97.37;99529.28;4992903;28;20057;-86
2023/03/30 07:06:06;;;;;;;19.65;7.80;;;;;;;11.19;97.54;99544.34;4999344;28;20044;-86
2023/03/30 07:08:35;;;;;;;18.83;7.72;;;;;;;11.21;97.64;99555.69;4981903;28;20046;-86
2023/03/30 07:11:04;;;;;;;23.20;7.72;;;;;;;11.24;97.54;99554.56;5007229;28;20051;-86
2023/03/30 07:13:34;;;;;;;21.50;7.80;;;;;;;11.26;97.25;99555.25;4994833;28;20046;-87
2023/03/30 07:16:02;;;;;;;24.70;7.72;;;;;;;11.25;97.56;99519.03;4986704;28;20164;-86
2023/03/30 07:18:30;;;;;;;22.33;8.82;;;;;;;11.27;97.42;99504.63;4988538;28;20069;-87
2023/03/30 07:20:58;;;;;;;22.83;8.95;;;;;;;11.29;97.47;99499.97;4995212;28;20080;-86
2023/03/30 07:23:31;;;;;;;18.95;8.38;;;;;;;11.30;97.91;99503.47;4998215;28;20041;-86
2023/03/30 07:25:58;;;;;;;20.55;8.43;;;;;;;11.36;97.62;99505.53;5009695;28;20053;-87
2023/03/30 07:28:48;;;;;;;31.83;12.57;;;;;;;11.42;96.98;99496.97;4985296;28;20053;-86
2023/03/30 07:31:16;;;;;;;41.53;22.77;;;;;;;11.49;96.84;99490.06;4991517;28;20052;-86
2023/03/30 07:33:43;;;;;;;50.13;29.42;;;;;;;11.55;96.34;99491.28;4966481;28;20129;-87
2023/03/30 07:36:13;;;;;;;46.63;30.48;;;;;;;11.62;96.39;99491.50;4967347;28;20057;-86
2023/03/30 07:38:41;;;;;;;47.08;29.05;;;;;;;11.65;96.01;99492.06;4970856;28;20046;-86
2023/03/30 07:41:11;;;;;;;45.67;25.55;;;;;;;11.69;95.98;99500.56;4964458;28;20050;-86
2023/03/30 07:43:41;;;;;;;36.60;19.05;;;;;;;11.72;96.11;99510.91;4985354;28;20057;-87
2023/03/30 07:46:11;;;;;;;33.13;15.00;;;;;;;11.75;96.28;99518.56;5017341;28;20499;-86
2023/03/30 07:48:42;;;;;;;26.13;13.50;;;;;;;11.73;96.09;99526.72;4985794;28;20061;-87
2023/03/30 07:51:11;;;;;;;22.63;12.07;;;;;;;11.79;96.30;99541.22;4979401;28;20104;-87
2023/03/30 07:53:47;;;;;;;33.00;11.95;;;;;;;11.80;96.32;99550.03;5006349;28;20487;-86
2023/03/30 07:56:22;;;;;;;31.45;10.93;;;;;;;11.81;96.64;99549.06;4966033;28;20049;-87
2023/03/30 07:58:52;;;;;;;29.63;10.32;;;;;;;11.82;96.61;99543.59;4973183;28;20467;-87
2023/03/30 08:01:23;;;;;;;25.30;9.57;;;;;;;11.86;97.12;99541.47;4985270;28;20054;-86
2023/03/30 08:04:07;;;;;;;33.60;9.80;;;;;;;11.90;97.60;99554.34;4977645;28;20057;-87
2023/03/30 08:06:35;;;;;;;34.53;9.70;;;;;;;11.93;97.90;99548.72;4991531;28;20151;-87
2023/03/30 08:09:03;;;;;;;22.77;8.35;;;;;;;11.98;98.22;99539.44;4962066;28;20054;-87
2023/03/30 08:11:30;;;;;;;33.20;9.18;;;;;;;12.01;98.00;99536.47;5000792;28;20044;-87
2023/03/30 08:13:57;;;;;;;23.73;7.85;;;;;;;12.00;98.06;99532.16;4963310;28;20050;-86
2023/03/30 08:16:24;;;;;;;22.10;7.93;;;;;;;12.01;98.18;99528.50;4995052;28;20361;-87
2023/03/30 08:18:53;;;;;;;32.42;9.15;;;;;;;12.02;98.33;99515.03;4996568;28;20072;-87
2023/03/30 08:21:24;;;;;;;41.88;10.40;;;;;;;12.03;98.68;99531.84;4959428;28;20164;-87
2023/03/30 08:23:52;;;;;;;39.65;13.30;;;;;;;12.05;98.32;99521.88;5018821;28;20147;-88
2023/03/30 08:26:19;;;;;;;36.17;12.18;;;;;;;12.01;98.55;99491.22;5001065;28;20427;-87
2023/03/30 08:28:46;;;;;;;39.53;11.98;;;;;;;12.01;99.00;99504.53;4976300;28;20126;-86
2023/03/30 08:31:14;;;;;;;46.40;13.10;;;;;;;12.04;98.92;99478.47;4969431;28;20050;-87
2023/03/30 08:33:41;;;;;;;59.58;13.75;;;;;;;12.07;98.87;99470.19;4988315;28;20085;-87
2023/03/30 08:36:08;;;;;;;53.35;11.70;;;;;;;12.09;99.25;99483.34;4992343;28;20058;-86
2023/03/30 08:38:40;;;;;;;41.83;12.13;;;;;;;12.12;99.43;99497.16;5002813;28;20050;-87
2023/03/30 08:41:53;;;;;;;54.90;14.13;;;;;;;12.08;100.00;99503.78;4970481;28;20046;-87
2023/03/30 08:44:40;;;;;;;79.50;17.25;;;;;;;12.11;100.00;99494.66;5002124;28;20060;-87
2023/03/30 08:47:30;;;;;;;43.72;10.35;;;;;;;12.12;100.00;99485.69;4977795;28;20212;-87
2023/03/30 08:50:15;;;;;;;37.80;10.53;;;;;;;12.18;100.00;99490.38;4965742;28;20090;-87
2023/03/30 08:52:50;;;;;;;41.60;10.27;;;;;;;12.23;99.79;99492.59;4992878;28;20054;-87
2023/03/30 08:56:02;;;;;;;37.55;12.50;;;;;;;12.25;100.00;99488.78;4999372;28;20506;-87
2023/03/30 08:58:57;;;;;;;36.75;11.25;;;;;;;12.28;100.00;99480.47;4962054;28;21968;-87
2023/03/30 09:01:41;;;;;;;28.13;9.60;;;;;;;12.38;100.00;99491.03;4927137;28;20159;-87
2023/03/30 09:04:39;;;;;;;31.98;9.77;;;;;;;12.38;100.00;99491.88;4938247;28;20054;-87
2023/03/30 09:07:15;;;;;;;25.48;7.68;;;;;;;12.46;99.96;99487.59;4991704;28;20132;-87
2023/03/30 09:09:46;;;;;;;28.52;9.30;;;;;;;12.54;99.64;99487.63;4996216;28;20510;-86
2023/03/30 09:12:21;;;;;;;32.38;9.02;;;;;;;12.58;99.81;99502.31;4989806;28;20078;-87
2023/03/30 09:14:57;;;;;;;30.23;9.43;;;;;;;12.59;100.00;99493.31;4991508;28;20129;-87
2023/03/30 09:17:31;;;;;;;22.13;8.02;;;;;;;12.64;99.58;99524.81;5012863;28;20449;-87
2023/03/30 09:20:23;;;;;;;22.88;7.97;;;;;;;12.59;100.00;99522.63;4963078;28;20054;-87
2023/03/30 09:23:01;;;;;;;21.63;7.10;;;;;;;12.57;99.83;99541.44;4982620;28;20046;-87
2023/03/30 09:25:43;;;;;;;30.83;7.40;;;;;;;12.58;100.00;99540.44;4977427;28;20076;-87
2023/03/30 09:28:35;;;;;;;24.02;8.25;;;;;;;12.59;100.00;99535.94;4983143;28;20045;-87
2023/03/30 09:31:22;;;;;;;37.35;8.75;;;;;;;12.59;99.97;99550.13;4991972;28;20050;-87
2023/03/30 09:34:27;;;;;;;27.70;9.20;;;;;;;12.54;100.00;99551.56;4986345;28;20049;-87
2023/03/30 09:36:56;;;;;;;24.05;7.45;;;;;;;12.58;100.00;99556.41;5005030;28;20050;-86
2023/03/30 09:39:26;;;;;;;27.88;7.90;;;;;;;12.54;100.00;99551.56;4988860;28;20046;-86
2023/03/30 09:42:18;;;;;;;17.40;6.47;;;;;;;12.52;100.00;99542.91;4993145;28;20049;-86
2023/03/30 09:44:46;;;;;;;27.13;7.43;;;;;;;12.52;100.00;99521.59;5012321;28;20050;-86
2023/03/30 09:47:35;;;;;;;23.77;6.43;;;;;;;12.46;100.00;99504.41;4994617;28;20139;-86
2023/03/30 09:50:23;;;;;;;21.67;6.13;;;;;;;12.53;99.82;99509.94;4940571;28;20050;-86
2023/03/30 09:53:02;;;;;;;14.70;5.53;;;;;;;12.53;99.92;99526.75;4983846;28;20638;-87
2023/03/30 09:55:36;;;;;;;19.42;5.93;;;;;;;12.56;100.00;99513.13;4998072;28;20120;-86
2023/03/30 09:58:10;;;;;;;14.95;5.30;;;;;;;12.62;99.60;99513.50;4997211;28;20506;-86
2023/03/30 10:00:38;;;;;;;25.58;7.47;;;;;;;12.69;99.71;99506.53;4980371;28;20477;-86
2023/03/30 10:03:06;;;;;;;15.20;5.57;;;;;;;12.70;100.00;99525.06;4988761;28;20069;-86
2023/03/30 10:05:35;;;;;;;20.17;7.28;;;;;;;12.71;99.87;99526.72;4995869;28;20068;-86
2023/03/30 10:08:04;;;;;;;17.38;6.32;;;;;;;12.66;99.50;99515.69;5012043;28;20126;-86
2023/03/30 10:10:36;;;;;;;20.38;6.70;;;;;;;12.70;99.46;99529.53;4939294;28;20410;-86
2023/03/30 10:13:14;;;;;;;16.75;5.60;;;;;;;12.59;100.00;99526.16;4974024;28;20050;-87
2023/03/30 10:15:47;;;;;;;18.08;5.53;;;;;;;12.70;99.61;99518.88;4994797;28;20065;-87
2023/03/30 10:18:17;;;;;;;17.92;5.75;;;;;;;12.70;99.87;99517.06;4972536;28;20052;-86
2023/03/30 10:20:51;;;;;;;22.50;5.90;;;;;;;12.72;99.63;99509.75;5005252;28;20129;-86
2023/03/30 10:23:20;;;;;;;23.27;6.70;;;;;;;12.71;99.24;99508.06;4973507;28;20046;-86
2023/03/30 10:25:50;;;;;;;15.75;5.38;;;;;;;12.76;99.13;99528.91;4997079;28;20455;-86
2023/03/30 10:28:27;;;;;;;21.17;5.78;;;;;;;12.72;99.39;99517.75;5012365;28;20041;-86
2023/03/30 10:30:55;;;;;;;18.40;5.50;;;;;;;12.80;98.91;99525.78;4942708;28;20117;-87
2023/03/30 10:33:27;;;;;;;21.60;7.18;;;;;;;12.85;99.35;99519.13;4994468;28;20052;-86
2023/03/30 10:35:59;;;;;;;20.10;7.60;;;;;;;12.85;98.98;99511.13;4967053;28;20053;-87
2023/03/30 10:38:31;;;;;;;16.45;6.28;;;;;;;12.85;98.90;99514.66;4978351;28;20241;-86
2023/03/30 10:41:07;;;;;;;24.35;8.85;;;;;;;12.85;99.20;99511.13;5012559;28;20065;-86
2023/03/30 10:43:37;;;;;;;15.68;6.18;;;;;;;12.87;99.44;99507.31;4994609;28;20498;-86
2023/03/30 10:46:12;;;;;;;21.73;6.43;;;;;;;12.88;99.53;99517.00;4976346;28;20169;-86
2023/03/30 10:49:10;;;;;;;19.13;5.85;;;;;;;12.85;99.71;99516.44;4983403;28;20050;-86
2023/03/30 10:51:54;;;;;;;18.98;6.45;;;;;;;12.91;99.38;99519.34;4989993;28;20159;-87
2023/03/30 10:54:32;;;;;;;19.95;5.72;;;;;;;12.94;99.48;99516.34;4966359;28;20054;-87
2023/03/30 10:57:10;;;;;;;23.88;7.45;;;;;;;12.97;100.00;99509.84;5006787;28;20106;-87
2023/03/30 11:00:03;;;;;;;18.15;6.68;;;;;;;12.98;100.00;99500.88;4972760;28;20050;-86
2023/03/30 11:02:59;;;;;;;17.95;6.50;;;;;;;13.01;99.80;99511.22;4971123;28;20057;-86
2023/03/30 11:05:28;;;;;;;20.52;6.85;;;;;;;13.11;99.22;99519.94;4936890;28;20522;-87
2023/03/30 11:08:13;;;;;;;18.70;5.05;;;;;;;13.19;99.44;99519.13;4965985;28;20045;-87
2023/03/30 11:10:46;;;;;;;12.50;5.43;;;;;;;13.20;99.61;99513.66;4974593;28;20042;-86
2023/03/30 11:13:13;;;;;;;22.77;6.00;;;;;;;13.26;99.67;99506.84;4950838;28;20054;-86
2023/03/30 11:15:57;;;;;;;15.20;5.90;;;;;;;13.20;98.24;99515.47;4995715;28;20046;-87
2023/03/30 11:18:24;;;;;;;14.10;5.72;;;;;;;13.23;98.15;99505.31;4995820;28;20422;-87
2023/03/30 11:20:58;;;;;;;17.63;5.90;;;;;;;13.21;97.55;99509.16;5022259;28;20049;-86
2023/03/30 11:23:41;;;;;;;18.52;6.72;;;;;;;13.17;97.91;99503.28;5000296;28;20536;-86
2023/03/30 11:26:17;;;;;;;18.38;5.60;;;;;;;13.17;97.34;99500.63;4957470;28;20329;-86
2023/03/30 11:28:45;;;;;;;19.80;5.55;;;;;;;13.18;97.34;99507.63;4968580;28;20133;-86
2023/03/30 11:31:55;;;;;;;16.77;5.60;;;;;;;13.16;96.39;99504.28;4907866;28;20380;-86
2023/03/30 11:34:53;;;;;;;26.00;8.43;;;;;;;13.18;96.33;99504.16;4934963;28;20055;-87
2023/03/30 11:38:20;;;;;;;17.50;5.63;;;;;;;13.20;95.40;99492.31;4935980;28;20113;-86
2023/03/30 11:40:54;;;;;;;20.83;6.53;;;;;;;13.24;95.28;99511.50;4965349;28;20049;-87
2023/03/30 11:43:29;;;;;;;22.92;6.00;;;;;;;13.22;94.92;99510.81;4939813;28;20054;-87
2023/03/30 11:46:11;;;;;;;19.70;6.10;;;;;;;13.19;93.61;99517.28;4942150;28;20047;-86
2023/03/30 11:49:14;;;;;;;18.10;5.55;;;;;;;13.21;93.55;99506.47;4954463;28;20047;-86
2023/03/30 11:52:14;;;;;;;14.48;5.07;;;;;;;13.34;92.09;99500.72;4925777;28;20802;-86
2023/03/30 11:55:03;;;;;;;11.93;4.90;;;;;;;13.34;91.00;99493.56;4951478;28;20046;-86
2023/03/30 11:57:39;;;;;;;25.40;5.50;;;;;;;13.42;88.59;99503.41;4961710;28;20053;-86
2023/03/30 12:00:24;;;;;;;13.23;5.57;;;;;;;13.40;89.53;99500.91;4938248;28;20050;-86
2023/03/30 12:03:04;;;;;;;20.02;7.35;;;;;;;13.45;89.91;99495.09;4932830;28;20506;-86
2023/03/30 12:05:38;;;;;;;23.85;7.28;;;;;;;13.44;87.91;99493.44;4978984;28;20041;-87
2023/03/30 12:08:43;;;;;;;24.60;6.82;;;;;;;13.43;87.47;99494.41;5023281;28;20045;-86
2023/03/30 12:11:21;;;;;;;21.85;6.70;;;;;;;13.48;88.76;99478.75;5002814;28;20054;-86